sensor_id;sensor_type;location;lat;lon;timestamp;temperature;humidity
51661;DHT22;37741;49.748;8.490;2024-03-29T00:00:25;9.40;70.70
51661;DHT22;37741;49.748;8.490;2024-03-29T00:02:50;9.40;70.50
51661;DHT22;37741;49.748;8.490;2024-03-29T00:05:16;9.30;70.60
51661;DHT22;37741;49.748;8.490;2024-03-29T00:07:42;9.30;70.50
51661;DHT22;37741;49.748;8.490;2024-03-29T00:10:07;9.30;70.60
51661;DHT22;37741;49.748;8.490;2024-03-29T00:12:33;9.30;70.60
51661;DHT22;37741;49.748;8.490;2024-03-29T00:14:59;9.30;71.20
51661;DHT22;37741;49.748;8.490;2024-03-29T00:17:24;9.30;70.60
51661;DHT22;37741;49.748;8.490;2024-03-29T00:19:50;9.20;70.70
51661;DHT22;37741;49.748;8.490;2024-03-29T00:22:15;9.20;70.70
51661;DHT22;37741;49.748;8.490;2024-03-29T00:24:41;9.20;70.70
51661;DHT22;37741;49.748;8.490;2024-03-29T00:27:07;9.20;70.70
51661;DHT22;37741;49.748;8.490;2024-03-29T00:29:32;9.20;70.70
51661;DHT22;37741;49.748;8.490;2024-03-29T00:31:58;9.20;70.80
51661;DHT22;37741;49.748;8.490;2024-03-29T00:34:23;9.20;70.90
51661;DHT22;37741;49.748;8.490;2024-03-29T00:36:49;9.10;70.80
51661;DHT22;37741;49.748;8.490;2024-03-29T00:39:14;9.10;70.80
51661;DHT22;37741;49.748;8.490;2024-03-29T00:41:40;9.10;70.90
51661;DHT22;37741;49.748;8.490;2024-03-29T00:44:06;9.10;71.10
51661;DHT22;37741;49.748;8.490;2024-03-29T00:46:31;9.10;71.20
51661;DHT22;37741;49.748;8.490;2024-03-29T00:48:57;9.10;71.20
51661;DHT22;37741;49.748;8.490;2024-03-29T00:51:23;9.00;71.20
51661;DHT22;37741;49.748;8.490;2024-03-29T00:53:48;9.00;71.30
51661;DHT22;37741;49.748;8.490;2024-03-29T00:56:15;9.00;71.30
51661;DHT22;37741;49.748;8.490;2024-03-29T00:58:41;9.00;71.40
51661;DHT22;37741;49.748;8.490;2024-03-29T01:01:06;9.00;71.50
51661;DHT22;37741;49.748;8.490;2024-03-29T01:03:32;9.00;71.50
51661;DHT22;37741;49.748;8.490;2024-03-29T01:05:57;8.90;71.60
51661;DHT22;37741;49.748;8.490;2024-03-29T01:08:23;9.00;71.70
51661;DHT22;37741;49.748;8.490;2024-03-29T01:10:49;8.90;71.60
51661;DHT22;37741;49.748;8.490;2024-03-29T01:13:15;8.90;71.70
51661;DHT22;37741;49.748;8.490;2024-03-29T01:15:40;8.90;71.50
51661;DHT22;37741;49.748;8.490;2024-03-29T01:18:06;8.90;72.20
51661;DHT22;37741;49.748;8.490;2024-03-29T01:20:32;8.90;71.70
51661;DHT22;37741;49.748;8.490;2024-03-29T01:22:57;8.90;71.70
51661;DHT22;37741;49.748;8.490;2024-03-29T01:25:23;8.90;71.70
51661;DHT22;37741;49.748;8.490;2024-03-29T01:27:49;8.90;71.80
51661;DHT22;37741;49.748;8.490;2024-03-29T01:30:15;8.90;71.80
51661;DHT22;37741;49.748;8.490;2024-03-29T01:32:41;8.90;71.90
51661;DHT22;37741;49.748;8.490;2024-03-29T01:35:07;8.90;71.90
51661;DHT22;37741;49.748;8.490;2024-03-29T01:37:32;8.90;71.90
51661;DHT22;37741;49.748;8.490;2024-03-29T01:39:59;8.90;71.80
51661;DHT22;37741;49.748;8.490;2024-03-29T01:42:25;8.90;71.80
51661;DHT22;37741;49.748;8.490;2024-03-29T01:44:50;8.80;71.70
51661;DHT22;37741;49.748;8.490;2024-03-29T01:47:17;8.90;71.70
51661;DHT22;37741;49.748;8.490;2024-03-29T01:49:44;8.90;71.90
51661;DHT22;37741;49.748;8.490;2024-03-29T01:52:11;8.80;71.70
51661;DHT22;37741;49.748;8.490;2024-03-29T01:54:37;8.80;71.70
51661;DHT22;37741;49.748;8.490;2024-03-29T01:57:03;8.80;71.80
51661;DHT22;37741;49.748;8.490;2024-03-29T01:59:29;8.80;71.80
51661;DHT22;37741;49.748;8.490;2024-03-29T02:01:56;8.80;71.90
51661;DHT22;37741;49.748;8.490;2024-03-29T02:04:23;8.80;72.00
51661;DHT22;37741;49.748;8.490;2024-03-29T02:06:48;8.80;71.90
51661;DHT22;37741;49.748;8.490;2024-03-29T02:09:14;8.80;71.90
51661;DHT22;37741;49.748;8.490;2024-03-29T02:11:40;8.80;71.90
51661;DHT22;37741;49.748;8.490;2024-03-29T02:14:05;8.80;71.90
51661;DHT22;37741;49.748;8.490;2024-03-29T02:16:32;8.80;71.80
51661;DHT22;37741;49.748;8.490;2024-03-29T02:18:57;8.80;71.90
51661;DHT22;37741;49.748;8.490;2024-03-29T02:21:23;8.80;71.80
51661;DHT22;37741;49.748;8.490;2024-03-29T02:24:12;8.80;71.80
51661;DHT22;37741;49.748;8.490;2024-03-29T02:26:38;8.80;71.90
51661;DHT22;37741;49.748;8.490;2024-03-29T02:29:08;8.80;71.90
51661;DHT22;37741;49.748;8.490;2024-03-29T02:31:34;8.80;71.90
51661;DHT22;37741;49.748;8.490;2024-03-29T02:34:00;8.80;72.00
51661;DHT22;37741;49.748;8.490;2024-03-29T02:36:26;8.70;71.80
51661;DHT22;37741;49.748;8.490;2024-03-29T02:38:51;8.80;72.00
51661;DHT22;37741;49.748;8.490;2024-03-29T02:41:18;8.70;72.00
51661;DHT22;37741;49.748;8.490;2024-03-29T02:43:43;8.70;72.10
51661;DHT22;37741;49.748;8.490;2024-03-29T02:46:09;8.70;72.20
51661;DHT22;37741;49.748;8.490;2024-03-29T02:48:34;8.70;72.20
51661;DHT22;37741;49.748;8.490;2024-03-29T02:51:00;8.70;72.30
51661;DHT22;37741;49.748;8.490;2024-03-29T02:53:26;8.70;72.40
51661;DHT22;37741;49.748;8.490;2024-03-29T02:55:52;8.70;72.50
51661;DHT22;37741;49.748;8.490;2024-03-29T02:58:17;8.70;73.00
51661;DHT22;37741;49.748;8.490;2024-03-29T03:00:43;8.70;72.40
51661;DHT22;37741;49.748;8.490;2024-03-29T03:03:08;8.70;72.40
51661;DHT22;37741;49.748;8.490;2024-03-29T03:05:34;8.70;72.30
51661;DHT22;37741;49.748;8.490;2024-03-29T03:07:59;8.70;72.40
51661;DHT22;37741;49.748;8.490;2024-03-29T03:10:47;8.70;72.50
51661;DHT22;37741;49.748;8.490;2024-03-29T03:13:22;8.70;72.60
51661;DHT22;37741;49.748;8.490;2024-03-29T03:15:48;8.70;72.60
51661;DHT22;37741;49.748;8.490;2024-03-29T03:18:13;8.70;72.70
51661;DHT22;37741;49.748;8.490;2024-03-29T03:20:39;8.70;72.70
51661;DHT22;37741;49.748;8.490;2024-03-29T03:23:05;8.70;72.70
51661;DHT22;37741;49.748;8.490;2024-03-29T03:25:30;8.70;72.70
51661;DHT22;37741;49.748;8.490;2024-03-29T03:27:56;8.70;72.80
51661;DHT22;37741;49.748;8.490;2024-03-29T03:30:21;8.70;73.00
51661;DHT22;37741;49.748;8.490;2024-03-29T03:32:47;8.70;73.00
51661;DHT22;37741;49.748;8.490;2024-03-29T03:35:13;8.70;72.90
51661;DHT22;37741;49.748;8.490;2024-03-29T03:37:39;8.70;73.00
51661;DHT22;37741;49.748;8.490;2024-03-29T03:40:05;8.70;73.60
51661;DHT22;37741;49.748;8.490;2024-03-29T03:42:32;8.70;72.90
51661;DHT22;37741;49.748;8.490;2024-03-29T03:44:57;8.70;73.10
51661;DHT22;37741;49.748;8.490;2024-03-29T03:47:23;8.70;73.20
51661;DHT22;37741;49.748;8.490;2024-03-29T03:49:48;8.70;73.20
51661;DHT22;37741;49.748;8.490;2024-03-29T03:52:14;8.70;73.20
51661;DHT22;37741;49.748;8.490;2024-03-29T03:54:40;8.70;73.20
51661;DHT22;37741;49.748;8.490;2024-03-29T03:57:05;8.70;73.20
51661;DHT22;37741;49.748;8.490;2024-03-29T03:59:31;8.70;73.40
51661;DHT22;37741;49.748;8.490;2024-03-29T04:01:57;8.70;73.30
51661;DHT22;37741;49.748;8.490;2024-03-29T04:04:22;8.60;73.20
51661;DHT22;37741;49.748;8.490;2024-03-29T04:06:48;8.60;73.20
51661;DHT22;37741;49.748;8.490;2024-03-29T04:09:17;8.60;73.30
51661;DHT22;37741;49.748;8.490;2024-03-29T04:11:43;8.60;73.40
51661;DHT22;37741;49.748;8.490;2024-03-29T04:14:08;8.70;73.50
51661;DHT22;37741;49.748;8.490;2024-03-29T04:16:34;8.70;73.40
51661;DHT22;37741;49.748;8.490;2024-03-29T04:19:00;8.60;73.40
51661;DHT22;37741;49.748;8.490;2024-03-29T04:21:25;8.70;73.60
51661;DHT22;37741;49.748;8.490;2024-03-29T04:23:51;8.70;73.60
51661;DHT22;37741;49.748;8.490;2024-03-29T04:26:17;8.60;73.60
51661;DHT22;37741;49.748;8.490;2024-03-29T04:28:42;8.60;73.60
51661;DHT22;37741;49.748;8.490;2024-03-29T04:31:08;8.60;73.80
51661;DHT22;37741;49.748;8.490;2024-03-29T04:33:33;8.70;73.80
51661;DHT22;37741;49.748;8.490;2024-03-29T04:36:01;8.70;73.70
51661;DHT22;37741;49.748;8.490;2024-03-29T04:38:27;8.70;73.70
51661;DHT22;37741;49.748;8.490;2024-03-29T04:40:55;8.70;74.00
51661;DHT22;37741;49.748;8.490;2024-03-29T04:43:28;8.70;75.00
51661;DHT22;37741;49.748;8.490;2024-03-29T04:46:09;8.70;74.20
51661;DHT22;37741;49.748;8.490;2024-03-29T04:48:39;8.70;74.00
51661;DHT22;37741;49.748;8.490;2024-03-29T04:51:05;8.70;74.20
51661;DHT22;37741;49.748;8.490;2024-03-29T04:53:31;8.70;74.50
51661;DHT22;37741;49.748;8.490;2024-03-29T04:55:57;8.70;74.60
51661;DHT22;37741;49.748;8.490;2024-03-29T04:58:24;8.70;74.40
51661;DHT22;37741;49.748;8.490;2024-03-29T05:00:50;8.70;75.00
51661;DHT22;37741;49.748;8.490;2024-03-29T05:03:20;8.70;74.50
51661;DHT22;37741;49.748;8.490;2024-03-29T05:05:46;8.70;74.60
51661;DHT22;37741;49.748;8.490;2024-03-29T05:08:12;8.70;75.40
51661;DHT22;37741;49.748;8.490;2024-03-29T05:10:39;8.60;74.70
51661;DHT22;37741;49.748;8.490;2024-03-29T05:13:05;8.60;74.70
51661;DHT22;37741;49.748;8.490;2024-03-29T05:15:31;8.60;74.70
51661;DHT22;37741;49.748;8.490;2024-03-29T05:17:57;8.60;74.80
51661;DHT22;37741;49.748;8.490;2024-03-29T05:20:23;8.60;74.70
51661;DHT22;37741;49.748;8.490;2024-03-29T05:22:48;8.60;74.90
51661;DHT22;37741;49.748;8.490;2024-03-29T05:25:14;8.60;74.70
51661;DHT22;37741;49.748;8.490;2024-03-29T05:27:40;8.70;75.00
51661;DHT22;37741;49.748;8.490;2024-03-29T05:30:06;8.70;75.90
51661;DHT22;37741;49.748;8.490;2024-03-29T05:32:32;8.60;75.50
51661;DHT22;37741;49.748;8.490;2024-03-29T05:34:57;8.60;75.10
51661;DHT22;37741;49.748;8.490;2024-03-29T05:37:23;8.60;75.70
51661;DHT22;37741;49.748;8.490;2024-03-29T05:39:52;8.70;75.40
51661;DHT22;37741;49.748;8.490;2024-03-29T05:42:36;8.60;75.70
51661;DHT22;37741;49.748;8.490;2024-03-29T05:45:04;8.60;75.90
51661;DHT22;37741;49.748;8.490;2024-03-29T05:47:31;8.60;75.70
51661;DHT22;37741;49.748;8.490;2024-03-29T05:49:56;8.70;75.40
51661;DHT22;37741;49.748;8.490;2024-03-29T05:52:22;8.60;76.00
51661;DHT22;37741;49.748;8.490;2024-03-29T05:54:48;8.60;75.80
51661;DHT22;37741;49.748;8.490;2024-03-29T05:57:14;8.60;77.20
51661;DHT22;37741;49.748;8.490;2024-03-29T05:59:41;8.60;76.20
51661;DHT22;37741;49.748;8.490;2024-03-29T06:02:06;8.60;76.50
51661;DHT22;37741;49.748;8.490;2024-03-29T06:04:32;8.60;76.60
51661;DHT22;37741;49.748;8.490;2024-03-29T06:07:04;8.60;75.90
51661;DHT22;37741;49.748;8.490;2024-03-29T06:09:30;8.60;76.50
51661;DHT22;37741;49.748;8.490;2024-03-29T06:11:58;8.60;76.20
51661;DHT22;37741;49.748;8.490;2024-03-29T06:14:24;8.60;76.00
51661;DHT22;37741;49.748;8.490;2024-03-29T06:17:08;8.60;76.30
51661;DHT22;37741;49.748;8.490;2024-03-29T06:19:50;8.60;76.00
51661;DHT22;37741;49.748;8.490;2024-03-29T06:22:17;8.70;76.20
51661;DHT22;37741;49.748;8.490;2024-03-29T06:24:43;8.60;76.20
51661;DHT22;37741;49.748;8.490;2024-03-29T06:27:10;8.60;76.20
51661;DHT22;37741;49.748;8.490;2024-03-29T06:29:35;8.60;76.20
51661;DHT22;37741;49.748;8.490;2024-03-29T06:32:01;8.60;76.20
51661;DHT22;37741;49.748;8.490;2024-03-29T06:34:30;8.60;76.50
51661;DHT22;37741;49.748;8.490;2024-03-29T06:36:56;8.60;76.50
51661;DHT22;37741;49.748;8.490;2024-03-29T06:39:22;8.60;76.80
51661;DHT22;37741;49.748;8.490;2024-03-29T06:41:48;8.60;76.50
51661;DHT22;37741;49.748;8.490;2024-03-29T06:44:13;8.60;76.50
51661;DHT22;37741;49.748;8.490;2024-03-29T06:46:39;8.60;76.30
51661;DHT22;37741;49.748;8.490;2024-03-29T06:49:05;8.60;76.30
51661;DHT22;37741;49.748;8.490;2024-03-29T06:51:30;8.70;76.70
51661;DHT22;37741;49.748;8.490;2024-03-29T06:53:56;8.60;76.60
51661;DHT22;37741;49.748;8.490;2024-03-29T06:56:22;8.60;76.50
51661;DHT22;37741;49.748;8.490;2024-03-29T06:58:47;8.60;77.20
51661;DHT22;37741;49.748;8.490;2024-03-29T07:01:13;8.60;76.70
51661;DHT22;37741;49.748;8.490;2024-03-29T07:03:39;8.60;76.90
51661;DHT22;37741;49.748;8.490;2024-03-29T07:06:05;8.60;76.70
51661;DHT22;37741;49.748;8.490;2024-03-29T07:08:31;8.60;76.60
51661;DHT22;37741;49.748;8.490;2024-03-29T07:11:03;8.60;76.60
51661;DHT22;37741;49.748;8.490;2024-03-29T07:13:29;8.60;76.70
51661;DHT22;37741;49.748;8.490;2024-03-29T07:15:57;8.60;76.60
51661;DHT22;37741;49.748;8.490;2024-03-29T07:18:23;8.60;77.20
51661;DHT22;37741;49.748;8.490;2024-03-29T07:20:49;8.60;76.80
51661;DHT22;37741;49.748;8.490;2024-03-29T07:23:15;8.60;77.00
51661;DHT22;37741;49.748;8.490;2024-03-29T07:25:43;8.60;76.90
51661;DHT22;37741;49.748;8.490;2024-03-29T07:28:09;8.60;77.00
51661;DHT22;37741;49.748;8.490;2024-03-29T07:30:36;8.60;76.90
51661;DHT22;37741;49.748;8.490;2024-03-29T07:33:05;8.70;76.90
51661;DHT22;37741;49.748;8.490;2024-03-29T07:35:30;8.70;77.20
51661;DHT22;37741;49.748;8.490;2024-03-29T07:37:56;8.70;77.30
51661;DHT22;37741;49.748;8.490;2024-03-29T07:40:22;8.70;77.20
51661;DHT22;37741;49.748;8.490;2024-03-29T07:42:48;8.70;77.40
51661;DHT22;37741;49.748;8.490;2024-03-29T07:45:13;8.70;77.80
51661;DHT22;37741;49.748;8.490;2024-03-29T07:47:39;8.80;79.60
51661;DHT22;37741;49.748;8.490;2024-03-29T07:50:08;8.80;79.60
51661;DHT22;37741;49.748;8.490;2024-03-29T07:52:35;8.80;79.10
51661;DHT22;37741;49.748;8.490;2024-03-29T07:55:02;8.80;79.10
51661;DHT22;37741;49.748;8.490;2024-03-29T07:57:42;8.80;79.20
51661;DHT22;37741;49.748;8.490;2024-03-29T08:00:11;8.80;79.00
51661;DHT22;37741;49.748;8.490;2024-03-29T08:02:37;8.80;78.90
51661;DHT22;37741;49.748;8.490;2024-03-29T08:05:04;8.80;78.90
51661;DHT22;37741;49.748;8.490;2024-03-29T08:07:32;8.80;79.00
51661;DHT22;37741;49.748;8.490;2024-03-29T08:09:58;8.80;80.80
51661;DHT22;37741;49.748;8.490;2024-03-29T08:12:23;8.90;80.30
51661;DHT22;37741;49.748;8.490;2024-03-29T08:14:49;8.90;79.80
51661;DHT22;37741;49.748;8.490;2024-03-29T08:17:14;8.90;79.60
51661;DHT22;37741;49.748;8.490;2024-03-29T08:19:40;8.90;79.30
51661;DHT22;37741;49.748;8.490;2024-03-29T08:22:08;8.90;79.20
51661;DHT22;37741;49.748;8.490;2024-03-29T08:24:36;8.90;79.70
51661;DHT22;37741;49.748;8.490;2024-03-29T08:27:02;8.90;78.90
51661;DHT22;37741;49.748;8.490;2024-03-29T08:29:28;8.90;79.30
51661;DHT22;37741;49.748;8.490;2024-03-29T08:31:53;8.90;78.90
51661;DHT22;37741;49.748;8.490;2024-03-29T08:34:19;8.90;79.00
51661;DHT22;37741;49.748;8.490;2024-03-29T08:36:44;8.90;79.00
51661;DHT22;37741;49.748;8.490;2024-03-29T08:39:10;8.90;78.80
51661;DHT22;37741;49.748;8.490;2024-03-29T08:41:37;8.90;79.10
51661;DHT22;37741;49.748;8.490;2024-03-29T08:44:02;8.90;78.90
51661;DHT22;37741;49.748;8.490;2024-03-29T08:46:28;9.00;79.30
51661;DHT22;37741;49.748;8.490;2024-03-29T08:48:54;9.00;81.20
51661;DHT22;37741;49.748;8.490;2024-03-29T08:51:23;9.00;80.40
51661;DHT22;37741;49.748;8.490;2024-03-29T08:53:49;9.00;80.00
51661;DHT22;37741;49.748;8.490;2024-03-29T08:56:15;9.10;80.10
51661;DHT22;37741;49.748;8.490;2024-03-29T08:58:41;9.10;80.00
51661;DHT22;37741;49.748;8.490;2024-03-29T09:01:06;9.10;80.10
51661;DHT22;37741;49.748;8.490;2024-03-29T09:03:32;9.10;80.40
51661;DHT22;37741;49.748;8.490;2024-03-29T09:05:58;9.10;80.20
51661;DHT22;37741;49.748;8.490;2024-03-29T09:08:24;9.10;80.50
51661;DHT22;37741;49.748;8.490;2024-03-29T09:10:49;9.00;80.70
51661;DHT22;37741;49.748;8.490;2024-03-29T09:13:15;9.10;79.90
51661;DHT22;37741;49.748;8.490;2024-03-29T09:15:41;9.10;80.20
51661;DHT22;37741;49.748;8.490;2024-03-29T09:18:07;9.10;80.20
51661;DHT22;37741;49.748;8.490;2024-03-29T09:20:43;9.10;80.10
51661;DHT22;37741;49.748;8.490;2024-03-29T09:23:10;9.10;79.70
51661;DHT22;37741;49.748;8.490;2024-03-29T09:25:40;9.10;79.70
51661;DHT22;37741;49.748;8.490;2024-03-29T09:28:05;9.10;79.90
51661;DHT22;37741;49.748;8.490;2024-03-29T09:30:32;9.10;80.00
51661;DHT22;37741;49.748;8.490;2024-03-29T09:32:57;9.20;79.80
51661;DHT22;37741;49.748;8.490;2024-03-29T09:35:23;9.10;79.30
51661;DHT22;37741;49.748;8.490;2024-03-29T09:37:49;9.20;79.30
51661;DHT22;37741;49.748;8.490;2024-03-29T09:40:15;9.20;79.40
51661;DHT22;37741;49.748;8.490;2024-03-29T09:42:43;9.20;79.40
51661;DHT22;37741;49.748;8.490;2024-03-29T09:45:10;9.20;79.90
51661;DHT22;37741;49.748;8.490;2024-03-29T09:47:36;9.20;79.90
51661;DHT22;37741;49.748;8.490;2024-03-29T09:50:03;9.20;79.50
51661;DHT22;37741;49.748;8.490;2024-03-29T09:52:32;9.20;79.30
51661;DHT22;37741;49.748;8.490;2024-03-29T09:54:58;9.20;79.20
51661;DHT22;37741;49.748;8.490;2024-03-29T09:57:25;9.20;79.60
51661;DHT22;37741;49.748;8.490;2024-03-29T09:59:55;9.20;79.30
51661;DHT22;37741;49.748;8.490;2024-03-29T10:02:21;9.30;79.70
51661;DHT22;37741;49.748;8.490;2024-03-29T10:04:50;9.20;79.90
51661;DHT22;37741;49.748;8.490;2024-03-29T10:07:17;9.20;80.30
51661;DHT22;37741;49.748;8.490;2024-03-29T10:09:43;9.30;80.10
51661;DHT22;37741;49.748;8.490;2024-03-29T10:12:10;9.30;80.40
51661;DHT22;37741;49.748;8.490;2024-03-29T10:14:48;9.30;80.30
51661;DHT22;37741;49.748;8.490;2024-03-29T10:17:35;9.30;80.20
51661;DHT22;37741;49.748;8.490;2024-03-29T10:20:10;9.30;80.50
51661;DHT22;37741;49.748;8.490;2024-03-29T10:22:43;9.30;80.50
51661;DHT22;37741;49.748;8.490;2024-03-29T10:25:15;9.30;80.40
51661;DHT22;37741;49.748;8.490;2024-03-29T10:28:11;9.30;81.10
51661;DHT22;37741;49.748;8.490;2024-03-29T10:30:38;9.30;80.70
51661;DHT22;37741;49.748;8.490;2024-03-29T10:33:04;9.30;80.70
51661;DHT22;37741;49.748;8.490;2024-03-29T10:35:32;9.30;80.80
51661;DHT22;37741;49.748;8.490;2024-03-29T10:38:04;9.30;80.70
51661;DHT22;37741;49.748;8.490;2024-03-29T10:40:30;9.40;81.70
51661;DHT22;37741;49.748;8.490;2024-03-29T10:42:56;9.40;81.30
51661;DHT22;37741;49.748;8.490;2024-03-29T10:45:22;9.30;81.20
51661;DHT22;37741;49.748;8.490;2024-03-29T10:47:49;9.40;82.20
51661;DHT22;37741;49.748;8.490;2024-03-29T10:50:19;9.40;82.50
51661;DHT22;37741;49.748;8.490;2024-03-29T10:52:45;9.40;82.30
51661;DHT22;37741;49.748;8.490;2024-03-29T10:55:11;9.40;82.30
51661;DHT22;37741;49.748;8.490;2024-03-29T10:57:41;9.50;82.40
51661;DHT22;37741;49.748;8.490;2024-03-29T11:00:12;9.50;82.30
51661;DHT22;37741;49.748;8.490;2024-03-29T11:02:50;9.50;83.20
51661;DHT22;37741;49.748;8.490;2024-03-29T11:05:17;9.60;83.60
51661;DHT22;37741;49.748;8.490;2024-03-29T11:07:44;9.60;83.60
51661;DHT22;37741;49.748;8.490;2024-03-29T11:10:17;9.60;84.00
51661;DHT22;37741;49.748;8.490;2024-03-29T11:13:03;9.60;85.10
51661;DHT22;37741;49.748;8.490;2024-03-29T11:15:31;9.70;84.80
51661;DHT22;37741;49.748;8.490;2024-03-29T11:18:00;9.70;85.50
51661;DHT22;37741;49.748;8.490;2024-03-29T11:20:27;9.80;85.50
51661;DHT22;37741;49.748;8.490;2024-03-29T11:23:08;9.80;85.60
51661;DHT22;37741;49.748;8.490;2024-03-29T11:25:45;9.80;85.70
51661;DHT22;37741;49.748;8.490;2024-03-29T11:28:21;9.90;85.80
51661;DHT22;37741;49.748;8.490;2024-03-29T11:30:49;9.90;85.80
51661;DHT22;37741;49.748;8.490;2024-03-29T11:36:11;10.00;85.70
51661;DHT22;37741;49.748;8.490;2024-03-29T11:38:37;10.00;85.50
51661;DHT22;37741;49.748;8.490;2024-03-29T11:41:04;10.00;85.70
51661;DHT22;37741;49.748;8.490;2024-03-29T11:43:34;10.10;86.00
51661;DHT22;37741;49.748;8.490;2024-03-29T11:46:00;10.10;86.20
51661;DHT22;37741;49.748;8.490;2024-03-29T11:48:28;10.10;86.00
51661;DHT22;37741;49.748;8.490;2024-03-29T11:50:54;10.10;86.10
51661;DHT22;37741;49.748;8.490;2024-03-29T11:53:20;10.20;86.20
51661;DHT22;37741;49.748;8.490;2024-03-29T11:55:46;10.10;86.40
51661;DHT22;37741;49.748;8.490;2024-03-29T11:58:13;10.20;86.40
51661;DHT22;37741;49.748;8.490;2024-03-29T12:00:39;10.20;86.60
51661;DHT22;37741;49.748;8.490;2024-03-29T12:03:06;10.20;87.10
51661;DHT22;37741;49.748;8.490;2024-03-29T12:05:32;10.30;86.50
51661;DHT22;37741;49.748;8.490;2024-03-29T12:07:58;10.30;86.60
51661;DHT22;37741;49.748;8.490;2024-03-29T12:10:28;10.30;86.50
51661;DHT22;37741;49.748;8.490;2024-03-29T12:12:59;10.30;86.50
51661;DHT22;37741;49.748;8.490;2024-03-29T12:15:27;10.40;86.40
51661;DHT22;37741;49.748;8.490;2024-03-29T12:17:55;10.40;86.30
51661;DHT22;37741;49.748;8.490;2024-03-29T12:20:21;10.40;86.50
51661;DHT22;37741;49.748;8.490;2024-03-29T12:22:47;10.40;86.70
51661;DHT22;37741;49.748;8.490;2024-03-29T12:25:13;10.40;86.70
51661;DHT22;37741;49.748;8.490;2024-03-29T12:27:38;10.40;87.10
51661;DHT22;37741;49.748;8.490;2024-03-29T12:30:05;10.50;86.80
51661;DHT22;37741;49.748;8.490;2024-03-29T12:32:31;10.50;86.60
51661;DHT22;37741;49.748;8.490;2024-03-29T12:35:10;10.60;86.60
51661;DHT22;37741;49.748;8.490;2024-03-29T12:37:36;10.50;86.40
51661;DHT22;37741;49.748;8.490;2024-03-29T12:40:03;10.60;86.40
51661;DHT22;37741;49.748;8.490;2024-03-29T12:42:39;10.60;86.60
51661;DHT22;37741;49.748;8.490;2024-03-29T12:45:06;10.60;86.70
51661;DHT22;37741;49.748;8.490;2024-03-29T12:47:36;10.60;86.30
51661;DHT22;37741;49.748;8.490;2024-03-29T12:50:02;10.60;86.10
51661;DHT22;37741;49.748;8.490;2024-03-29T12:52:39;10.70;86.60
51661;DHT22;37741;49.748;8.490;2024-03-29T12:55:06;10.70;86.60
51661;DHT22;37741;49.748;8.490;2024-03-29T12:57:34;10.70;86.60
51661;DHT22;37741;49.748;8.490;2024-03-29T13:00:00;10.70;86.40
51661;DHT22;37741;49.748;8.490;2024-03-29T13:02:26;10.80;86.90
51661;DHT22;37741;49.748;8.490;2024-03-29T13:04:52;10.70;86.50
51661;DHT22;37741;49.748;8.490;2024-03-29T13:07:17;10.80;86.30
51661;DHT22;37741;49.748;8.490;2024-03-29T13:09:43;10.80;86.30
51661;DHT22;37741;49.748;8.490;2024-03-29T13:12:09;10.80;87.10
51661;DHT22;37741;49.748;8.490;2024-03-29T13:14:34;10.80;86.50
51661;DHT22;37741;49.748;8.490;2024-03-29T13:17:00;10.80;86.30
51661;DHT22;37741;49.748;8.490;2024-03-29T13:19:26;10.90;87.10
51661;DHT22;37741;49.748;8.490;2024-03-29T13:21:51;10.90;86.90
51661;DHT22;37741;49.748;8.490;2024-03-29T13:24:17;10.90;86.70
51661;DHT22;37741;49.748;8.490;2024-03-29T13:26:42;10.90;86.30
51661;DHT22;37741;49.748;8.490;2024-03-29T13:29:08;10.90;86.60
51661;DHT22;37741;49.748;8.490;2024-03-29T13:31:34;11.00;86.20
51661;DHT22;37741;49.748;8.490;2024-03-29T13:34:00;11.00;86.30
51661;DHT22;37741;49.748;8.490;2024-03-29T13:36:40;11.00;86.50
51661;DHT22;37741;49.748;8.490;2024-03-29T13:39:07;11.00;86.20
51661;DHT22;37741;49.748;8.490;2024-03-29T13:41:33;11.00;86.20
51661;DHT22;37741;49.748;8.490;2024-03-29T13:44:01;11.00;86.70
51661;DHT22;37741;49.748;8.490;2024-03-29T13:46:35;11.10;86.40
51661;DHT22;37741;49.748;8.490;2024-03-29T13:49:01;11.10;86.50
51661;DHT22;37741;49.748;8.490;2024-03-29T13:51:27;11.10;86.70
51661;DHT22;37741;49.748;8.490;2024-03-29T13:53:53;11.10;87.30
51661;DHT22;37741;49.748;8.490;2024-03-29T13:56:21;11.10;87.00
51661;DHT22;37741;49.748;8.490;2024-03-29T13:58:47;11.10;86.50
51661;DHT22;37741;49.748;8.490;2024-03-29T14:01:13;11.10;86.40
51661;DHT22;37741;49.748;8.490;2024-03-29T14:03:39;11.10;86.30
51661;DHT22;37741;49.748;8.490;2024-03-29T14:06:05;11.20;88.10
51661;DHT22;37741;49.748;8.490;2024-03-29T14:08:32;11.20;87.60
51661;DHT22;37741;49.748;8.490;2024-03-29T14:10:58;11.20;88.40
51661;DHT22;37741;49.748;8.490;2024-03-29T14:13:24;11.20;88.60
51661;DHT22;37741;49.748;8.490;2024-03-29T14:15:50;11.20;87.50
51661;DHT22;37741;49.748;8.490;2024-03-29T14:18:18;11.20;87.60
51661;DHT22;37741;49.748;8.490;2024-03-29T14:20:44;11.20;86.90
51661;DHT22;37741;49.748;8.490;2024-03-29T14:23:09;11.20;87.40
51661;DHT22;37741;49.748;8.490;2024-03-29T14:25:38;11.20;87.10
51661;DHT22;37741;49.748;8.490;2024-03-29T14:28:05;11.20;87.50
51661;DHT22;37741;49.748;8.490;2024-03-29T14:30:31;11.20;87.00
51661;DHT22;37741;49.748;8.490;2024-03-29T14:32:56;11.20;87.00
51661;DHT22;37741;49.748;8.490;2024-03-29T14:35:22;11.30;86.60
51661;DHT22;37741;49.748;8.490;2024-03-29T14:37:49;11.30;86.50
51661;DHT22;37741;49.748;8.490;2024-03-29T14:40:15;11.30;86.70
51661;DHT22;37741;49.748;8.490;2024-03-29T14:42:43;11.30;86.50
51661;DHT22;37741;49.748;8.490;2024-03-29T14:45:09;11.30;86.80
51661;DHT22;37741;49.748;8.490;2024-03-29T14:47:40;11.30;87.20
51661;DHT22;37741;49.748;8.490;2024-03-29T14:50:06;11.30;87.90
51661;DHT22;37741;49.748;8.490;2024-03-29T14:52:39;11.40;87.20
51661;DHT22;37741;49.748;8.490;2024-03-29T14:55:05;11.40;88.80
51661;DHT22;37741;49.748;8.490;2024-03-29T14:57:31;11.40;87.50
51661;DHT22;37741;49.748;8.490;2024-03-29T14:59:57;11.40;88.10
51661;DHT22;37741;49.748;8.490;2024-03-29T15:02:23;11.40;87.40
51661;DHT22;37741;49.748;8.490;2024-03-29T15:04:48;11.30;86.80
51661;DHT22;37741;49.748;8.490;2024-03-29T15:07:14;11.40;87.00
51661;DHT22;37741;49.748;8.490;2024-03-29T15:09:40;11.40;87.20
51661;DHT22;37741;49.748;8.490;2024-03-29T15:12:06;11.40;86.70
51661;DHT22;37741;49.748;8.490;2024-03-29T15:14:34;11.40;86.60
51661;DHT22;37741;49.748;8.490;2024-03-29T15:17:01;11.40;87.50
51661;DHT22;37741;49.748;8.490;2024-03-29T15:19:27;11.40;87.30
51661;DHT22;37741;49.748;8.490;2024-03-29T15:21:52;11.40;86.70
51661;DHT22;37741;49.748;8.490;2024-03-29T15:24:20;11.50;86.90
51661;DHT22;37741;49.748;8.490;2024-03-29T15:26:46;11.50;87.00
51661;DHT22;37741;49.748;8.490;2024-03-29T15:29:11;11.50;86.90
51661;DHT22;37741;49.748;8.490;2024-03-29T15:31:37;11.50;86.90
51661;DHT22;37741;49.748;8.490;2024-03-29T15:34:04;11.50;87.20
51661;DHT22;37741;49.748;8.490;2024-03-29T15:36:31;11.50;86.80
51661;DHT22;37741;49.748;8.490;2024-03-29T15:38:57;11.50;86.70
51661;DHT22;37741;49.748;8.490;2024-03-29T15:42:06;11.50;86.90
51661;DHT22;37741;49.748;8.490;2024-03-29T15:44:35;11.60;87.00